createdAt,value
2022-09-25T00:02:14.515Z,53.70
2022-09-25T00:04:40.931Z,53.70
2022-09-25T00:07:07.331Z,53.70
2022-09-25T00:09:33.750Z,54.20
2022-09-25T00:12:00.188Z,53.60
2022-09-25T00:14:26.632Z,54.20
2022-09-25T00:16:53.109Z,54.20
2022-09-25T00:19:19.573Z,54.20
2022-09-25T00:21:45.989Z,53.60
2022-09-25T00:24:12.507Z,53.70
2022-09-25T00:26:39.041Z,54.20
2022-09-25T00:29:05.464Z,54.10
2022-09-25T00:31:31.903Z,53.70
2022-09-25T00:33:58.303Z,54.30
2022-09-25T00:36:24.704Z,54.20
2022-09-25T00:38:51.119Z,54.10
2022-09-25T00:41:17.535Z,53.60
2022-09-25T00:43:43.950Z,54.20
2022-09-25T00:46:10.414Z,54.20
2022-09-25T00:48:36.859Z,54.10
2022-09-25T00:51:03.274Z,53.60
2022-09-25T00:53:29.684Z,54.10
2022-09-25T00:55:56.082Z,54.10
2022-09-25T00:58:22.501Z,54.10
2022-09-25T01:00:49.029Z,53.60
2022-09-25T01:03:15.580Z,53.60
2022-09-25T01:05:41.998Z,54.10
2022-09-25T01:08:08.442Z,53.50
2022-09-25T01:10:34.843Z,53.50
2022-09-25T01:13:01.271Z,54.00
2022-09-25T01:15:27.681Z,53.50
2022-09-25T01:17:54.088Z,54.00
2022-09-25T01:20:20.494Z,53.40
2022-09-25T01:22:46.911Z,54.10
2022-09-25T01:25:13.326Z,53.90
2022-09-25T01:27:39.734Z,54.00
2022-09-25T01:30:06.146Z,53.40
2022-09-25T01:32:32.550Z,53.90
2022-09-25T01:34:58.949Z,54.00
2022-09-25T01:37:25.354Z,54.00
2022-09-25T01:39:51.799Z,53.40
2022-09-25T01:42:18.194Z,53.40
2022-09-25T01:44:44.610Z,54.00
2022-09-25T01:47:11.013Z,53.40
2022-09-25T01:49:37.421Z,54.00
2022-09-25T01:52:03.851Z,53.40
2022-09-25T01:54:30.261Z,53.90
2022-09-25T01:56:56.679Z,53.90
2022-09-25T01:59:23.085Z,53.90
2022-09-25T02:01:49.563Z,53.30
2022-09-25T02:04:16.026Z,53.90
2022-09-25T02:06:42.446Z,53.90
2022-09-25T02:09:08.849Z,53.90
2022-09-25T02:11:35.262Z,53.40
2022-09-25T02:14:01.669Z,53.90
2022-09-25T02:16:28.101Z,53.90
2022-09-25T02:18:54.562Z,53.80
2022-09-25T02:21:20.982Z,53.20
2022-09-25T02:23:47.509Z,53.90
2022-09-25T02:26:13.943Z,53.30
2022-09-25T02:28:40.370Z,53.80
2022-09-25T02:31:06.901Z,53.30
2022-09-25T02:33:33.375Z,53.80
2022-09-25T02:35:59.791Z,53.80
2022-09-25T02:38:26.207Z,53.80
2022-09-25T02:40:52.689Z,53.20
2022-09-25T02:43:19.148Z,53.80
2022-09-25T02:45:45.635Z,53.70
2022-09-25T02:48:12.107Z,53.20
2022-09-25T02:50:38.557Z,53.20
2022-09-25T02:53:04.956Z,53.70
2022-09-25T02:55:31.364Z,53.20
2022-09-25T02:57:57.779Z,53.70
2022-09-25T03:00:24.208Z,53.20
2022-09-25T03:02:52.582Z,53.70
2022-09-25T03:05:19.151Z,53.70
2022-09-25T03:07:45.577Z,53.70
2022-09-25T03:10:11.990Z,53.10
2022-09-25T03:12:38.415Z,53.70
2022-09-25T03:15:04.837Z,53.70
2022-09-25T03:17:31.260Z,53.70
2022-09-25T03:19:57.671Z,53.70
2022-09-25T03:22:24.076Z,53.20
2022-09-25T03:24:50.498Z,53.80
2022-09-25T03:27:16.924Z,53.70
2022-09-25T03:29:43.341Z,53.70
2022-09-25T03:32:09.796Z,53.20
2022-09-25T03:34:36.220Z,53.70
2022-09-25T03:37:02.638Z,53.70
2022-09-25T03:39:29.064Z,53.70
2022-09-25T03:41:55.493Z,53.20
2022-09-25T03:44:21.926Z,53.70
2022-09-25T03:46:48.335Z,53.70
2022-09-25T03:49:14.766Z,53.80
2022-09-25T03:51:41.173Z,53.10
2022-09-25T03:54:07.586Z,53.20
2022-09-25T03:56:33.974Z,53.20
2022-09-25T03:59:00.386Z,53.60
2022-09-25T04:01:26.862Z,53.20
2022-09-25T04:03:53.324Z,53.60
2022-09-25T04:06:19.745Z,53.60
2022-09-25T04:08:46.149Z,53.10
2022-09-25T04:11:12.559Z,53.10
2022-09-25T04:13:38.999Z,53.70
2022-09-25T04:16:05.463Z,53.10
2022-09-25T04:18:31.982Z,53.50
2022-09-25T04:20:58.432Z,53.10
2022-09-25T04:23:24.848Z,53.60
2022-09-25T04:25:51.255Z,53.60
2022-09-25T04:28:17.668Z,53.60
2022-09-25T04:30:44.071Z,53.00
2022-09-25T04:33:10.471Z,53.60
2022-09-25T04:35:36.880Z,53.60
2022-09-25T04:38:03.285Z,53.60
2022-09-25T04:40:29.737Z,53.00
2022-09-25T04:42:56.174Z,53.00
2022-09-25T04:45:22.589Z,53.60
2022-09-25T04:47:48.994Z,53.50
2022-09-25T04:50:15.394Z,53.00
2022-09-25T04:52:41.790Z,53.50
2022-09-25T04:55:08.190Z,53.50
2022-09-25T04:57:57.252Z,53.50
2022-09-25T05:00:21.019Z,52.90
2022-09-25T05:02:47.555Z,53.50
2022-09-25T05:05:14.055Z,52.90
2022-09-25T05:07:40.456Z,52.90
2022-09-25T05:10:06.877Z,53.00
2022-09-25T05:12:33.280Z,53.50
2022-09-25T05:14:59.685Z,53.50
2022-09-25T05:17:26.100Z,53.50
2022-09-25T05:19:52.512Z,53.40
2022-09-25T05:22:18.927Z,53.00
2022-09-25T05:24:45.362Z,53.50
2022-09-25T05:27:11.783Z,53.50
2022-09-25T05:29:38.210Z,53.50
2022-09-25T05:32:04.711Z,53.00
2022-09-25T05:34:31.123Z,53.50
2022-09-25T05:36:57.531Z,53.50
2022-09-25T05:39:23.948Z,53.50
2022-09-25T05:41:50.371Z,53.00
2022-09-25T05:44:16.788Z,53.50
2022-09-25T05:46:43.248Z,53.60
2022-09-25T05:49:09.743Z,53.50
2022-09-25T05:51:36.142Z,53.00
2022-09-25T05:54:02.546Z,53.50
2022-09-25T05:56:28.956Z,53.40
2022-09-25T05:58:55.380Z,53.50
2022-09-25T06:01:21.821Z,52.90
2022-09-25T06:03:48.332Z,53.50
2022-09-25T06:06:14.763Z,53.40
2022-09-25T06:08:41.182Z,53.40
2022-09-25T06:11:07.604Z,52.90
2022-09-25T06:13:34.016Z,53.50
2022-09-25T06:16:00.528Z,53.40
2022-09-25T06:18:27.010Z,53.40
2022-09-25T06:20:53.417Z,53.00
2022-09-25T06:23:19.842Z,53.00
2022-09-25T06:25:46.255Z,54.50
2022-09-25T06:28:12.684Z,53.60
2022-09-25T06:30:39.122Z,53.00
2022-09-25T06:33:05.572Z,53.60
2022-09-25T06:35:32.014Z,53.50
2022-09-25T06:37:58.449Z,53.60
2022-09-25T06:40:24.950Z,53.00
2022-09-25T06:42:51.482Z,53.60
2022-09-25T06:45:17.897Z,53.60
2022-09-25T06:47:44.327Z,53.60
2022-09-25T06:50:10.745Z,53.00
2022-09-25T06:52:37.151Z,53.00
2022-09-25T06:55:03.566Z,53.50
2022-09-25T06:57:29.973Z,52.90
2022-09-25T06:59:56.455Z,53.40
2022-09-25T07:02:23.124Z,53.00
2022-09-25T07:04:49.595Z,53.50
2022-09-25T07:07:16.007Z,53.50
2022-09-25T07:09:42.415Z,53.50
2022-09-25T07:12:08.856Z,52.90
2022-09-25T07:14:35.280Z,54.00
2022-09-25T07:17:01.703Z,53.90
2022-09-25T07:19:28.116Z,53.90
2022-09-25T07:21:54.539Z,53.90
2022-09-25T07:24:21.010Z,54.70
2022-09-25T07:26:47.446Z,54.30
2022-09-25T07:29:13.895Z,54.80
2022-09-25T07:31:40.376Z,54.10
2022-09-25T07:34:06.936Z,54.90
2022-09-25T07:36:33.442Z,54.60
2022-09-25T07:38:59.862Z,54.30
2022-09-25T07:41:26.271Z,54.20
2022-09-25T07:44:01.904Z,54.70
2022-09-25T07:46:38.300Z,54.60
2022-09-25T07:49:04.752Z,54.50
2022-09-25T07:51:31.183Z,54.60
2022-09-25T07:53:57.603Z,54.30
2022-09-25T07:56:24.032Z,54.40
2022-09-25T07:58:50.431Z,55.40
2022-09-25T08:01:16.965Z,54.80
2022-09-25T08:03:43.404Z,55.20
2022-09-25T08:06:09.813Z,55.40
2022-09-25T08:08:36.223Z,55.10
2022-09-25T08:11:02.679Z,54.60
2022-09-25T08:13:29.161Z,54.60
2022-09-25T08:15:55.620Z,54.70
2022-09-25T08:18:22.114Z,55.20
2022-09-25T08:20:48.513Z,55.40
2022-09-25T08:23:14.918Z,56.50
2022-09-25T08:25:41.332Z,56.40
2022-09-25T08:28:07.766Z,56.50
2022-09-25T08:30:34.168Z,55.50
2022-09-25T08:33:00.621Z,56.00
2022-09-25T08:35:27.040Z,55.90
2022-09-25T08:37:53.541Z,55.60
2022-09-25T08:40:20.035Z,55.10
2022-09-25T08:42:46.545Z,55.10
2022-09-25T08:45:21.969Z,55.30
2022-09-25T08:47:48.780Z,55.20
2022-09-25T08:50:15.199Z,54.70
2022-09-25T08:52:41.623Z,55.10
2022-09-25T08:55:08.036Z,55.20
2022-09-25T08:57:34.473Z,55.00
2022-09-25T09:00:02.376Z,55.00
2022-09-25T09:02:29.000Z,54.50
2022-09-25T09:04:55.572Z,54.90
2022-09-25T09:07:26.817Z,54.80
2022-09-25T09:09:53.874Z,54.80
2022-09-25T09:12:20.279Z,54.20
2022-09-25T09:14:46.699Z,54.80
2022-09-25T09:17:13.114Z,54.70
2022-09-25T09:19:39.559Z,54.70
2022-09-25T09:22:05.985Z,54.10
2022-09-25T09:24:32.421Z,54.50
2022-09-25T09:26:58.834Z,54.30
2022-09-25T09:29:25.267Z,54.90
2022-09-25T09:31:51.684Z,54.50
2022-09-25T09:34:18.151Z,54.90
2022-09-25T09:36:44.586Z,54.70
2022-09-25T09:39:10.995Z,54.60
2022-09-25T09:41:37.416Z,54.10
2022-09-25T09:44:03.828Z,54.60
2022-09-25T09:46:30.301Z,54.60
2022-09-25T09:48:56.752Z,54.60
2022-09-25T09:51:23.171Z,54.20
2022-09-25T09:53:49.636Z,54.60
2022-09-25T09:56:16.056Z,54.10
2022-09-25T09:58:42.482Z,54.60
2022-09-25T10:01:29.003Z,54.10
2022-09-25T10:03:55.346Z,54.20
2022-09-25T10:06:22.699Z,54.60
2022-09-25T10:08:49.214Z,54.80
2022-09-25T10:11:15.650Z,54.40
2022-09-25T10:13:42.086Z,54.80
2022-09-25T10:16:08.548Z,54.60
2022-09-25T10:18:34.983Z,54.30
2022-09-25T10:21:01.434Z,54.20
2022-09-25T10:23:27.869Z,55.30
2022-09-25T10:25:56.156Z,54.90
2022-09-25T10:28:22.796Z,55.30
2022-09-25T10:30:49.306Z,54.20
2022-09-25T10:33:15.774Z,54.70
2022-09-25T10:35:42.196Z,54.90
2022-09-25T10:38:08.608Z,55.20
2022-09-25T10:40:35.126Z,54.50
2022-09-25T10:43:01.619Z,54.60
2022-09-25T10:45:28.043Z,54.80
2022-09-25T10:47:54.454Z,54.90
2022-09-25T10:50:20.910Z,54.90
2022-09-25T10:52:47.312Z,54.80
2022-09-25T10:55:13.768Z,55.50
2022-09-25T10:57:40.193Z,54.90
2022-09-25T11:00:06.629Z,54.70
2022-09-25T11:02:33.116Z,54.70
2022-09-25T11:04:59.565Z,55.40
2022-09-25T11:07:26.006Z,55.30
2022-09-25T11:09:55.204Z,55.30
2022-09-25T11:12:25.580Z,54.80
2022-09-25T11:14:52.000Z,55.10
2022-09-25T11:17:18.441Z,55.50
2022-09-25T11:19:44.863Z,55.60
2022-09-25T11:22:11.274Z,55.10
2022-09-25T11:24:37.697Z,55.70
2022-09-25T11:27:04.114Z,55.40
2022-09-25T11:29:30.527Z,55.60
2022-09-25T11:31:57.000Z,55.20
2022-09-25T11:34:23.429Z,55.60
2022-09-25T11:36:49.844Z,55.60
2022-09-25T11:39:16.361Z,55.60
2022-09-25T11:41:42.807Z,55.20
2022-09-25T11:44:09.219Z,55.50
2022-09-25T11:46:35.676Z,55.60
2022-09-25T11:49:02.119Z,55.60
2022-09-25T11:51:28.533Z,54.90
2022-09-25T11:53:57.325Z,55.50
2022-09-25T11:56:33.836Z,54.90
2022-09-25T11:59:00.253Z,55.50
2022-09-25T12:01:26.773Z,54.80
2022-09-25T12:03:53.216Z,55.30
2022-09-25T12:06:19.669Z,55.30
2022-09-25T12:08:46.084Z,55.20
2022-09-25T12:11:12.503Z,54.80
2022-09-25T12:13:38.905Z,55.50
2022-09-25T12:16:05.391Z,56.20
2022-09-25T12:18:34.128Z,55.80
2022-09-25T12:21:00.771Z,55.60
2022-09-25T12:23:27.192Z,56.40
2022-09-25T12:25:53.620Z,56.40
2022-09-25T12:28:20.040Z,56.30
2022-09-25T12:30:46.498Z,55.80
2022-09-25T12:33:12.931Z,56.40
2022-09-25T12:35:39.341Z,56.50
2022-09-25T12:38:05.772Z,56.30
2022-09-25T12:40:32.246Z,55.90
2022-09-25T12:42:58.705Z,56.30
2022-09-25T12:45:25.142Z,56.40
2022-09-25T12:47:51.560Z,56.40
2022-09-25T12:50:19.137Z,55.90
2022-09-25T12:52:45.554Z,56.00
2022-09-25T12:55:11.977Z,55.90
2022-09-25T12:57:38.391Z,56.10
2022-09-25T13:02:31.814Z,56.30
2022-09-25T13:04:58.257Z,57.10
2022-09-25T13:07:24.693Z,56.50
2022-09-25T13:09:51.144Z,56.90
2022-09-25T13:12:17.567Z,56.40
2022-09-25T13:14:43.989Z,56.90
2022-09-25T13:17:10.398Z,57.00
2022-09-25T13:19:36.828Z,56.70
2022-09-25T13:22:03.254Z,56.40
2022-09-25T13:24:29.693Z,56.60
2022-09-25T13:26:56.116Z,57.00
2022-09-25T13:29:22.532Z,57.00
2022-09-25T13:31:48.942Z,56.90
2022-09-25T13:34:15.365Z,57.00
2022-09-25T13:36:41.779Z,57.10
2022-09-25T13:39:08.193Z,56.90
2022-09-25T13:41:34.619Z,56.70
2022-09-25T13:44:01.035Z,57.20
2022-09-25T13:46:27.486Z,57.10
2022-09-25T13:48:53.932Z,56.50
2022-09-25T13:51:20.364Z,56.70
2022-09-25T13:53:46.802Z,57.00
2022-09-25T13:56:13.210Z,57.10
2022-09-25T13:58:39.614Z,57.20
2022-09-25T14:01:06.061Z,56.70
2022-09-25T14:03:32.519Z,57.10
2022-09-25T14:05:58.931Z,57.00
2022-09-25T14:08:25.372Z,57.00
2022-09-25T14:10:51.774Z,56.80
2022-09-25T14:13:18.188Z,57.60
2022-09-25T14:15:44.603Z,57.40
2022-09-25T14:18:11.043Z,57.40
2022-09-25T14:20:37.460Z,56.80
2022-09-25T14:23:03.874Z,57.30
2022-09-25T14:25:30.292Z,57.00
2022-09-25T14:27:56.690Z,56.70
2022-09-25T14:30:23.140Z,56.30
2022-09-25T14:32:56.681Z,56.90
2022-09-25T14:35:23.145Z,57.10
2022-09-25T14:37:49.568Z,57.00
2022-09-25T14:40:16.038Z,56.20
2022-09-25T14:42:42.584Z,57.40
2022-09-25T14:45:08.989Z,56.80
2022-09-25T14:47:35.396Z,56.70
2022-09-25T14:50:01.793Z,56.80
2022-09-25T14:52:28.205Z,56.00
2022-09-25T14:54:54.628Z,56.80
2022-09-25T14:57:25.319Z,56.70
2022-09-25T14:59:52.074Z,56.60
2022-09-25T15:02:18.572Z,56.30
2022-09-25T15:04:45.040Z,56.70
2022-09-25T15:07:11.465Z,56.70
2022-09-25T15:09:37.897Z,56.60
2022-09-25T15:12:04.308Z,55.90
2022-09-25T15:14:30.741Z,56.50
2022-09-25T15:16:57.152Z,56.60
2022-09-25T15:19:23.567Z,56.50
2022-09-25T15:21:49.998Z,56.00
2022-09-25T15:24:16.401Z,56.50
2022-09-25T15:26:42.825Z,56.50
2022-09-25T15:29:09.222Z,56.00
2022-09-25T15:31:35.681Z,56.00
2022-09-25T15:34:02.357Z,56.50
2022-09-25T15:36:28.835Z,56.50
2022-09-25T15:38:55.242Z,56.50
2022-09-25T15:41:21.681Z,55.90
2022-09-25T15:43:48.091Z,56.50
2022-09-25T15:46:14.562Z,55.90
2022-09-25T15:48:41.018Z,56.50
2022-09-25T15:51:07.418Z,55.80
2022-09-25T15:53:33.845Z,56.40
2022-09-25T15:56:00.276Z,56.50
2022-09-25T15:58:26.678Z,56.90
2022-09-25T16:00:53.096Z,56.20
2022-09-25T16:03:19.516Z,56.10
2022-09-25T16:05:45.930Z,56.00
2022-09-25T16:08:12.338Z,56.60
2022-09-25T16:10:38.753Z,55.90
2022-09-25T16:13:05.168Z,56.60
2022-09-25T16:15:31.569Z,56.50
2022-09-25T16:18:02.848Z,56.40
2022-09-25T16:20:31.804Z,56.10
2022-09-25T16:22:58.210Z,56.60
2022-09-25T16:25:24.660Z,56.70
2022-09-25T16:27:51.094Z,56.60
2022-09-25T16:30:17.518Z,56.20
2022-09-25T16:32:43.937Z,56.70
2022-09-25T16:35:10.338Z,56.70
2022-09-25T16:37:36.764Z,56.20
2022-09-25T16:40:03.177Z,56.60
2022-09-25T16:42:29.589Z,56.10
2022-09-25T16:44:56.003Z,56.20
2022-09-25T16:47:22.438Z,56.70
2022-09-25T16:49:48.861Z,56.70
2022-09-25T16:52:15.306Z,56.10
2022-09-25T16:54:41.721Z,56.00
2022-09-25T16:57:08.129Z,56.80
2022-09-25T16:59:34.543Z,56.80
2022-09-25T17:02:01.040Z,56.20
2022-09-25T17:04:27.523Z,56.80
2022-09-25T17:06:53.945Z,56.30
2022-09-25T17:09:20.362Z,56.80
2022-09-25T17:11:46.778Z,55.90
2022-09-25T17:14:13.247Z,56.60
2022-09-25T17:16:39.654Z,56.20
2022-09-25T17:19:06.054Z,56.80
2022-09-25T17:21:32.477Z,56.30
2022-09-25T17:23:58.926Z,57.40
2022-09-25T17:26:25.352Z,56.80
2022-09-25T17:28:51.789Z,56.30
2022-09-25T17:31:18.236Z,56.30
2022-09-25T17:33:44.684Z,56.20
2022-09-25T17:36:11.098Z,56.30
2022-09-25T17:38:37.526Z,56.30
2022-09-25T17:41:05.774Z,56.30
2022-09-25T17:43:32.503Z,56.80
2022-09-25T17:45:58.975Z,57.60
2022-09-25T17:48:25.464Z,57.00
2022-09-25T17:50:51.874Z,56.50
2022-09-25T17:53:18.309Z,57.00
2022-09-25T17:55:44.724Z,57.00
2022-09-25T17:58:11.145Z,56.90
2022-09-25T18:00:37.549Z,56.60
2022-09-25T18:03:04.045Z,57.20
2022-09-25T18:05:30.549Z,56.80
2022-09-25T18:07:56.992Z,57.00
2022-09-25T18:10:23.474Z,57.10
2022-09-25T18:12:49.897Z,57.00
2022-09-25T18:15:16.356Z,57.50
2022-09-25T18:17:42.765Z,56.80
2022-09-25T18:20:09.195Z,56.90
2022-09-25T18:22:35.616Z,56.90
2022-09-25T18:25:02.065Z,57.00
2022-09-25T18:27:28.469Z,57.00
2022-09-25T18:29:54.900Z,57.10
2022-09-25T18:32:21.345Z,57.10
2022-09-25T18:34:47.756Z,57.00
2022-09-25T18:37:14.175Z,57.10
2022-09-25T18:39:40.600Z,57.70
2022-09-25T18:42:07.015Z,57.30
2022-09-25T18:44:35.298Z,57.70
2022-09-25T18:47:04.967Z,57.70
2022-09-25T18:49:31.407Z,57.70
2022-09-25T18:51:57.852Z,57.20
2022-09-25T18:54:24.293Z,57.70
2022-09-25T18:56:50.702Z,57.60
2022-09-25T18:59:17.137Z,57.60
2022-09-25T19:01:43.684Z,56.90
2022-09-25T19:04:10.255Z,57.40
2022-09-25T19:06:36.665Z,57.40
2022-09-25T19:09:03.076Z,57.50
2022-09-25T19:11:29.519Z,56.90
2022-09-25T19:13:55.937Z,57.50
2022-09-25T19:16:22.489Z,58.10
2022-09-25T19:18:49.006Z,57.30
2022-09-25T19:21:15.474Z,57.10
2022-09-25T19:23:41.906Z,57.50
2022-09-25T19:26:08.322Z,56.90
2022-09-25T19:28:34.757Z,57.40
2022-09-25T19:31:01.217Z,56.80
2022-09-25T19:33:27.707Z,57.40
2022-09-25T19:35:54.121Z,57.40
2022-09-25T19:38:20.553Z,57.40
2022-09-25T19:40:47.023Z,56.80
2022-09-25T19:43:13.515Z,56.70
2022-09-25T19:45:39.922Z,56.80
2022-09-25T19:50:36.644Z,56.70
2022-09-25T19:53:03.040Z,56.80
2022-09-25T19:55:29.458Z,57.30
2022-09-25T19:57:55.849Z,57.40
2022-09-25T20:00:22.249Z,57.60
2022-09-25T20:02:48.703Z,56.90
2022-09-25T20:05:15.148Z,57.30
2022-09-25T20:07:41.553Z,57.40
2022-09-25T20:10:07.950Z,57.40
2022-09-25T20:12:34.393Z,56.80
2022-09-25T20:15:00.797Z,57.40
2022-09-25T20:17:27.196Z,57.30
2022-09-25T20:19:53.611Z,57.40
2022-09-25T20:22:20.019Z,56.70
2022-09-25T20:24:46.421Z,57.40
2022-09-25T20:27:12.821Z,57.40
2022-09-25T20:29:39.253Z,57.50
2022-09-25T20:32:05.660Z,56.80
2022-09-25T20:34:32.057Z,57.30
2022-09-25T20:36:58.456Z,57.30
2022-09-25T20:39:24.852Z,57.20
2022-09-25T20:41:51.252Z,56.80
2022-09-25T20:44:17.652Z,57.30
2022-09-25T20:46:44.040Z,57.10
2022-09-25T20:49:10.450Z,57.20
2022-09-25T20:51:36.852Z,56.70
2022-09-25T20:54:03.263Z,57.20
2022-09-25T20:56:29.671Z,56.80
2022-09-25T20:58:56.072Z,57.30
2022-09-25T21:01:22.618Z,57.30
2022-09-25T21:03:49.152Z,57.30
2022-09-25T21:06:15.566Z,56.80
2022-09-25T21:08:41.976Z,56.80
2022-09-25T21:11:08.381Z,57.20
2022-09-25T21:13:34.809Z,57.30
2022-09-25T21:16:01.218Z,56.70
2022-09-25T21:18:27.643Z,57.20
2022-09-25T21:20:54.066Z,57.20
2022-09-25T21:23:20.475Z,57.20
2022-09-25T21:25:46.882Z,56.60
2022-09-25T21:28:13.298Z,57.20
2022-09-25T21:30:39.779Z,57.20
2022-09-25T21:33:06.229Z,57.20
2022-09-25T21:35:32.648Z,56.70
2022-09-25T21:37:59.061Z,57.10
2022-09-25T21:40:25.516Z,57.20
2022-09-25T21:42:51.946Z,57.10
2022-09-25T21:45:18.377Z,56.70
2022-09-25T21:47:44.837Z,57.20
2022-09-25T21:50:11.274Z,57.20
2022-09-25T21:52:37.695Z,57.20
2022-09-25T21:55:04.109Z,56.60
2022-09-25T21:57:30.505Z,57.20
2022-09-25T21:59:56.914Z,57.20
2022-09-25T22:02:23.321Z,57.30
2022-09-25T22:04:49.728Z,57.20
2022-09-25T22:07:16.156Z,56.70
2022-09-25T22:09:42.569Z,57.20
2022-09-25T22:12:09.003Z,57.10
2022-09-25T22:14:35.416Z,57.30
2022-09-25T22:17:01.932Z,56.60
2022-09-25T22:19:28.391Z,57.10
2022-09-25T22:21:54.796Z,57.20
2022-09-25T22:24:21.220Z,57.00
2022-09-25T22:26:47.623Z,56.30
2022-09-25T22:29:14.179Z,56.90
2022-09-25T22:31:40.796Z,57.00
2022-09-25T22:34:07.206Z,56.90
2022-09-25T22:36:33.641Z,56.50
2022-09-25T22:39:00.066Z,57.00
2022-09-25T22:41:26.473Z,56.40
2022-09-25T22:43:52.882Z,56.40
2022-09-25T22:46:19.366Z,56.40
2022-09-25T22:48:45.862Z,57.00
2022-09-25T22:51:12.281Z,56.50
2022-09-25T22:53:38.715Z,57.00
2022-09-25T22:56:05.163Z,56.20
2022-09-25T22:58:31.577Z,56.80
2022-09-25T23:00:58.018Z,56.80
2022-09-25T23:03:24.847Z,56.90
2022-09-25T23:05:51.420Z,56.30
2022-09-25T23:08:17.909Z,56.20
2022-09-25T23:11:06.051Z,56.90
2022-09-25T23:13:30.740Z,56.30
2022-09-25T23:15:57.166Z,56.30
2022-09-25T23:18:23.592Z,56.80
2022-09-25T23:20:49.991Z,56.90
2022-09-25T23:23:16.401Z,56.90
2022-09-25T23:25:42.819Z,56.40
2022-09-25T23:28:09.257Z,56.90
2022-09-25T23:30:35.721Z,56.90
2022-09-25T23:33:02.194Z,56.90
2022-09-25T23:35:28.610Z,56.40
2022-09-25T23:37:55.015Z,56.90
2022-09-25T23:40:21.470Z,56.90
2022-09-25T23:42:47.890Z,57.00
2022-09-25T23:45:14.325Z,56.40
2022-09-25T23:47:40.762Z,56.90
2022-09-25T23:50:07.169Z,56.90
2022-09-25T23:52:33.581Z,56.90
2022-09-25T23:54:59.996Z,56.40
2022-09-25T23:57:26.401Z,56.90
2022-09-25T23:59:52.806Z,56.90
